This is the latest recevied weather packets stored in our database for station/object DB5ZQ. If no packets are shown the sender has not sent any weather packets the latest 10 day(s).
| Time | Temp. | Humidity | Pressure | Rain* | Wind** | Luminosity | Snow |
|---|---|---|---|---|---|---|---|
| 1787877737 | 23.89° C | 77% | 1006.3 hPa | 9.14 mm | - | - | - |
| 1787877437 | 23.89° C | 77% | 1006.5 hPa | 9.14 mm | - | - | - |
| 1787877137 | 23.89° C | 77% | 1006.8 hPa | 8.89 mm | - | - | - |
| 1787876837 | 23.89° C | 77% | 1007.2 hPa | 8.38 mm | - | - | - |
| 1787876536 | 23.89° C | 77% | 1007.4 hPa | 7.87 mm | - | - | - |
| 1787876236 | 23.89° C | 77% | 1007.7 hPa | 7.37 mm | - | - | - |
| 1787875936 | 23.33° C | 78% | 1007.8 hPa | 6.86 mm | - | - | - |
| 1787875635 | 23.33° C | 78% | 1007.5 hPa | 6.1 mm | - | - | - |
| 1787875335 | 23.89° C | 77% | 1007.6 hPa | 5.33 mm | - | - | - |
| 1787875035 | 24.44° C | 75% | 1008 hPa | 4.32 mm | - | - | - |
| 1787874735 | 25° C | 71% | 1008.8 hPa | 3.3 mm | - | - | - |
| 1787874434 | 26.11° C | 66% | 1008.4 hPa | 2.03 mm | - | - | - |
| 1787874134 | 26.67° C | 59% | 1007.3 hPa | 0.51 mm | - | - | - |
| 1787873834 | 27.22° C | 55% | 1005.7 hPa | 0 mm | - | - | - |
| 1787873533 | 27.22° C | 54% | 1005 hPa | 0 mm | - | - | - |
| 1787873233 | 27.22° C | 54% | 1004.5 hPa | 0 mm | - | - | - |
| 1787872933 | 27.22° C | 53% | 1004.4 hPa | 0 mm | - | - | - |
| 1787872633 | 27.22° C | 53% | 1004.4 hPa | 0 mm | - | - | - |
| 1787872332 | 27.22° C | 53% | 1004.5 hPa | 0 mm | - | - | - |
| 1787872032 | 27.22° C | 53% | 1004.6 hPa | 0 mm | - | - | - |
| 1787871732 | 27.78° C | 53% | 1004.8 hPa | 0 mm | - | - | - |
| 1787871431 | 27.22° C | 53% | 1004.7 hPa | 0 mm | - | - | - |
| 1787871131 | 27.22° C | 52% | 1004.8 hPa | 0 mm | - | - | - |
| 1787870831 | 27.22° C | 52% | 1005 hPa | 0 mm | - | - | - |
| 1787870531 | 27.78° C | 52% | 1005.1 hPa | 0 mm | - | - | - |
* Rain latest hour (hover to see other rain measurements)
** Current wind speed in m/s (hover to see current wind gust speed)